sensor_id;sensor_type;location;lat;lon;timestamp;P1;durP1;ratioP1;P2;durP2;ratioP2
28605;SDS011;46498;49.968;7.754;2023-06-10T00:00:43;9.80;;;7.10;;
28605;SDS011;46498;49.968;7.754;2023-06-10T00:05:44;13.05;;;7.03;;
28605;SDS011;46498;49.968;7.754;2023-06-10T00:10:46;12.52;;;6.78;;
28605;SDS011;46498;49.968;7.754;2023-06-10T00:15:47;13.80;;;7.25;;
28605;SDS011;46498;49.968;7.754;2023-06-10T00:20:48;13.55;;;7.20;;
28605;SDS011;46498;49.968;7.754;2023-06-10T00:25:53;13.18;;;7.03;;
28605;SDS011;46498;49.968;7.754;2023-06-10T00:30:54;9.77;;;7.07;;
28605;SDS011;46498;49.968;7.754;2023-06-10T00:35:55;11.50;;;7.07;;
28605;SDS011;46498;49.968;7.754;2023-06-10T00:40:56;12.05;;;7.00;;
28605;SDS011;46498;49.968;7.754;2023-06-10T00:45:58;11.20;;;7.00;;
28605;SDS011;46498;49.968;7.754;2023-06-10T00:51:00;10.07;;;6.62;;
28605;SDS011;46498;49.968;7.754;2023-06-10T00:56:01;12.00;;;6.80;;
28605;SDS011;46498;49.968;7.754;2023-06-10T01:01:03;13.38;;;7.10;;
28605;SDS011;46498;49.968;7.754;2023-06-10T01:18:05;11.52;;;7.47;;
28605;SDS011;46498;49.968;7.754;2023-06-10T01:23:10;11.82;;;6.82;;
28605;SDS011;46498;49.968;7.754;2023-06-10T01:28:31;9.70;;;6.50;;
28605;SDS011;46498;49.968;7.754;2023-06-10T01:33:46;13.52;;;6.85;;
28605;SDS011;46498;49.968;7.754;2023-06-10T01:38:50;10.15;;;7.05;;
28605;SDS011;46498;49.968;7.754;2023-06-10T01:43:53;11.52;;;6.70;;
28605;SDS011;46498;49.968;7.754;2023-06-10T01:48:55;12.23;;;6.70;;
28605;SDS011;46498;49.968;7.754;2023-06-10T01:53:56;14.07;;;7.10;;
28605;SDS011;46498;49.968;7.754;2023-06-10T01:58:57;10.27;;;6.60;;
28605;SDS011;46498;49.968;7.754;2023-06-10T02:03:59;12.45;;;7.12;;
28605;SDS011;46498;49.968;7.754;2023-06-10T02:09:00;15.82;;;7.15;;
28605;SDS011;46498;49.968;7.754;2023-06-10T02:14:03;9.00;;;6.95;;
28605;SDS011;46498;49.968;7.754;2023-06-10T02:19:04;10.73;;;6.50;;
28605;SDS011;46498;49.968;7.754;2023-06-10T02:24:07;13.05;;;6.93;;
28605;SDS011;46498;49.968;7.754;2023-06-10T02:34:10;11.70;;;6.70;;
28605;SDS011;46498;49.968;7.754;2023-06-10T02:39:11;12.98;;;6.60;;
28605;SDS011;46498;49.968;7.754;2023-06-10T02:44:13;8.82;;;6.35;;
28605;SDS011;46498;49.968;7.754;2023-06-10T02:49:14;9.55;;;6.22;;
28605;SDS011;46498;49.968;7.754;2023-06-10T02:54:16;10.57;;;6.75;;
28605;SDS011;46498;49.968;7.754;2023-06-10T02:59:17;7.43;;;5.87;;
28605;SDS011;46498;49.968;7.754;2023-06-10T03:04:19;11.15;;;5.55;;
28605;SDS011;46498;49.968;7.754;2023-06-10T03:09:28;8.73;;;6.25;;
28605;SDS011;46498;49.968;7.754;2023-06-10T03:19:31;8.02;;;5.87;;
28605;SDS011;46498;49.968;7.754;2023-06-10T03:24:34;9.70;;;6.45;;
28605;SDS011;46498;49.968;7.754;2023-06-10T03:34:39;11.63;;;6.43;;
28605;SDS011;46498;49.968;7.754;2023-06-10T03:39:41;8.70;;;5.60;;
28605;SDS011;46498;49.968;7.754;2023-06-10T03:44:43;9.90;;;6.15;;
28605;SDS011;46498;49.968;7.754;2023-06-10T03:49:44;11.23;;;6.90;;
28605;SDS011;46498;49.968;7.754;2023-06-10T03:54:45;8.13;;;5.97;;
28605;SDS011;46498;49.968;7.754;2023-06-10T03:59:46;10.05;;;5.57;;
28605;SDS011;46498;49.968;7.754;2023-06-10T04:04:48;9.60;;;6.15;;
28605;SDS011;46498;49.968;7.754;2023-06-10T04:09:49;7.80;;;5.78;;
28605;SDS011;46498;49.968;7.754;2023-06-10T04:14:51;9.80;;;5.40;;
28605;SDS011;46498;49.968;7.754;2023-06-10T04:19:52;9.00;;;6.32;;
28605;SDS011;46498;49.968;7.754;2023-06-10T04:24:55;11.15;;;6.10;;
28605;SDS011;46498;49.968;7.754;2023-06-10T04:29:57;9.48;;;5.53;;
28605;SDS011;46498;49.968;7.754;2023-06-10T04:34:59;8.73;;;5.32;;
28605;SDS011;46498;49.968;7.754;2023-06-10T04:40:01;10.90;;;5.53;;
28605;SDS011;46498;49.968;7.754;2023-06-10T04:45:03;9.65;;;5.87;;
28605;SDS011;46498;49.968;7.754;2023-06-10T04:50:05;10.38;;;6.37;;
28605;SDS011;46498;49.968;7.754;2023-06-10T04:55:07;9.37;;;6.40;;
28605;SDS011;46498;49.968;7.754;2023-06-10T05:00:10;10.70;;;6.18;;
28605;SDS011;46498;49.968;7.754;2023-06-10T05:05:11;9.02;;;6.15;;
28605;SDS011;46498;49.968;7.754;2023-06-10T05:10:12;12.73;;;6.45;;
28605;SDS011;46498;49.968;7.754;2023-06-10T05:15:13;9.45;;;5.87;;
28605;SDS011;46498;49.968;7.754;2023-06-10T05:20:14;7.70;;;5.82;;
28605;SDS011;46498;49.968;7.754;2023-06-10T05:25:15;11.65;;;6.60;;
28605;SDS011;46498;49.968;7.754;2023-06-10T05:30:17;10.73;;;6.43;;
28605;SDS011;46498;49.968;7.754;2023-06-10T05:35:19;9.03;;;6.53;;
28605;SDS011;46498;49.968;7.754;2023-06-10T05:40:20;10.73;;;6.65;;
28605;SDS011;46498;49.968;7.754;2023-06-10T05:45:20;11.60;;;6.68;;
28605;SDS011;46498;49.968;7.754;2023-06-10T05:50:21;10.02;;;6.72;;
28605;SDS011;46498;49.968;7.754;2023-06-10T05:55:22;10.27;;;5.80;;
28605;SDS011;46498;49.968;7.754;2023-06-10T06:00:23;10.77;;;5.90;;
28605;SDS011;46498;49.968;7.754;2023-06-10T06:05:24;9.45;;;5.93;;
28605;SDS011;46498;49.968;7.754;2023-06-10T06:10:25;8.10;;;5.70;;
28605;SDS011;46498;49.968;7.754;2023-06-10T06:15:26;7.37;;;5.70;;
28605;SDS011;46498;49.968;7.754;2023-06-10T06:20:28;9.65;;;6.55;;
28605;SDS011;46498;49.968;7.754;2023-06-10T06:25:29;8.40;;;6.03;;
28605;SDS011;46498;49.968;7.754;2023-06-10T06:30:30;8.25;;;5.80;;
28605;SDS011;46498;49.968;7.754;2023-06-10T06:35:32;7.45;;;5.95;;
28605;SDS011;46498;49.968;7.754;2023-06-10T06:40:34;9.40;;;5.70;;
28605;SDS011;46498;49.968;7.754;2023-06-10T06:45:35;11.38;;;6.32;;
28605;SDS011;46498;49.968;7.754;2023-06-10T06:50:36;9.60;;;6.18;;
28605;SDS011;46498;49.968;7.754;2023-06-10T06:55:37;12.40;;;6.47;;
28605;SDS011;46498;49.968;7.754;2023-06-10T07:00:38;11.20;;;6.32;;
28605;SDS011;46498;49.968;7.754;2023-06-10T07:05:39;12.13;;;6.43;;
28605;SDS011;46498;49.968;7.754;2023-06-10T07:10:40;12.60;;;6.68;;
28605;SDS011;46498;49.968;7.754;2023-06-10T07:15:41;9.13;;;6.37;;
28605;SDS011;46498;49.968;7.754;2023-06-10T07:20:42;11.32;;;6.43;;
28605;SDS011;46498;49.968;7.754;2023-06-10T07:25:43;9.98;;;6.75;;
28605;SDS011;46498;49.968;7.754;2023-06-10T07:30:44;8.10;;;5.93;;
28605;SDS011;46498;49.968;7.754;2023-06-10T07:35:45;13.00;;;6.60;;
28605;SDS011;46498;49.968;7.754;2023-06-10T07:40:46;10.35;;;6.43;;
28605;SDS011;46498;49.968;7.754;2023-06-10T07:45:47;11.60;;;6.62;;
28605;SDS011;46498;49.968;7.754;2023-06-10T07:50:48;9.10;;;5.80;;
28605;SDS011;46498;49.968;7.754;2023-06-10T07:55:49;7.65;;;5.82;;
28605;SDS011;46498;49.968;7.754;2023-06-10T08:00:50;9.18;;;6.22;;
28605;SDS011;46498;49.968;7.754;2023-06-10T08:05:51;12.45;;;6.93;;
28605;SDS011;46498;49.968;7.754;2023-06-10T08:10:51;7.20;;;5.97;;
28605;SDS011;46498;49.968;7.754;2023-06-10T08:15:53;10.07;;;5.90;;
28605;SDS011;46498;49.968;7.754;2023-06-10T08:20:55;8.63;;;5.90;;
28605;SDS011;46498;49.968;7.754;2023-06-10T08:25:56;8.18;;;5.95;;
28605;SDS011;46498;49.968;7.754;2023-06-10T08:30:58;10.63;;;6.50;;
28605;SDS011;46498;49.968;7.754;2023-06-10T08:35:59;6.87;;;5.68;;
28605;SDS011;46498;49.968;7.754;2023-06-10T08:41:00;8.90;;;6.03;;
28605;SDS011;46498;49.968;7.754;2023-06-10T08:46:01;10.40;;;6.67;;
28605;SDS011;46498;49.968;7.754;2023-06-10T08:51:03;13.53;;;7.27;;
28605;SDS011;46498;49.968;7.754;2023-06-10T08:56:06;7.87;;;6.03;;
28605;SDS011;46498;49.968;7.754;2023-06-10T09:01:07;8.87;;;6.57;;
28605;SDS011;46498;49.968;7.754;2023-06-10T09:06:09;17.17;;;6.95;;
28605;SDS011;46498;49.968;7.754;2023-06-10T09:11:10;10.70;;;6.50;;
28605;SDS011;46498;49.968;7.754;2023-06-10T09:16:11;9.50;;;6.30;;
28605;SDS011;46498;49.968;7.754;2023-06-10T09:21:13;13.35;;;5.68;;
28605;SDS011;46498;49.968;7.754;2023-06-10T09:26:14;12.60;;;6.07;;
28605;SDS011;46498;49.968;7.754;2023-06-10T09:31:15;9.02;;;6.32;;
28605;SDS011;46498;49.968;7.754;2023-06-10T09:36:22;8.77;;;5.70;;
28605;SDS011;46498;49.968;7.754;2023-06-10T09:41:31;7.05;;;5.40;;
28605;SDS011;46498;49.968;7.754;2023-06-10T09:46:36;11.40;;;6.32;;
28605;SDS011;46498;49.968;7.754;2023-06-10T09:51:37;6.75;;;5.32;;
28605;SDS011;46498;49.968;7.754;2023-06-10T09:56:38;9.60;;;6.12;;
28605;SDS011;46498;49.968;7.754;2023-06-10T10:01:43;16.27;;;5.75;;
28605;SDS011;46498;49.968;7.754;2023-06-10T10:06:44;11.10;;;5.97;;
28605;SDS011;46498;49.968;7.754;2023-06-10T10:11:45;13.35;;;6.15;;
28605;SDS011;46498;49.968;7.754;2023-06-10T10:16:48;7.60;;;5.60;;
28605;SDS011;46498;49.968;7.754;2023-06-10T10:21:52;14.75;;;5.87;;
28605;SDS011;46498;49.968;7.754;2023-06-10T10:26:55;9.68;;;5.97;;
28605;SDS011;46498;49.968;7.754;2023-06-10T10:31:59;9.32;;;5.72;;
28605;SDS011;46498;49.968;7.754;2023-06-10T10:37:02;15.55;;;5.43;;
28605;SDS011;46498;49.968;7.754;2023-06-10T10:42:04;6.63;;;5.23;;
28605;SDS011;46498;49.968;7.754;2023-06-10T10:47:09;26.95;;;5.75;;
28605;SDS011;46498;49.968;7.754;2023-06-10T10:52:11;7.25;;;5.15;;
28605;SDS011;46498;49.968;7.754;2023-06-10T10:57:19;11.15;;;5.30;;
28605;SDS011;46498;49.968;7.754;2023-06-10T11:02:41;7.15;;;5.35;;
28605;SDS011;46498;49.968;7.754;2023-06-10T11:07:53;12.30;;;5.80;;
28605;SDS011;46498;49.968;7.754;2023-06-10T11:12:58;7.55;;;5.80;;
28605;SDS011;46498;49.968;7.754;2023-06-10T11:18:14;8.13;;;5.10;;
28605;SDS011;46498;49.968;7.754;2023-06-10T11:23:32;6.25;;;5.00;;
28605;SDS011;46498;49.968;7.754;2023-06-10T11:28:35;12.13;;;5.80;;
28605;SDS011;46498;49.968;7.754;2023-06-10T11:33:38;17.33;;;4.97;;
28605;SDS011;46498;49.968;7.754;2023-06-10T11:38:40;10.15;;;5.00;;
28605;SDS011;46498;49.968;7.754;2023-06-10T11:43:44;6.72;;;4.90;;
28605;SDS011;46498;49.968;7.754;2023-06-10T11:48:52;9.80;;;4.93;;
28605;SDS011;46498;49.968;7.754;2023-06-10T11:53:55;9.23;;;5.12;;
28605;SDS011;46498;49.968;7.754;2023-06-10T11:58:57;7.27;;;4.90;;
28605;SDS011;46498;49.968;7.754;2023-06-10T12:04:05;5.97;;;4.65;;
28605;SDS011;46498;49.968;7.754;2023-06-10T12:09:25;9.27;;;5.47;;
28605;SDS011;46498;49.968;7.754;2023-06-10T12:19:59;7.03;;;5.70;;
28605;SDS011;46498;49.968;7.754;2023-06-10T12:30:04;9.25;;;5.97;;
28605;SDS011;46498;49.968;7.754;2023-06-10T12:35:08;9.05;;;5.93;;
28605;SDS011;46498;49.968;7.754;2023-06-10T12:40:10;7.45;;;6.10;;
28605;SDS011;46498;49.968;7.754;2023-06-10T12:45:14;7.20;;;5.85;;
28605;SDS011;46498;49.968;7.754;2023-06-10T12:50:15;10.63;;;6.20;;
28605;SDS011;46498;49.968;7.754;2023-06-10T12:55:16;11.48;;;6.05;;
28605;SDS011;46498;49.968;7.754;2023-06-10T13:00:17;9.07;;;5.78;;
28605;SDS011;46498;49.968;7.754;2023-06-10T13:05:19;8.25;;;5.62;;
28605;SDS011;46498;49.968;7.754;2023-06-10T13:15:26;7.35;;;5.68;;
28605;SDS011;46498;49.968;7.754;2023-06-10T13:20:27;9.00;;;5.78;;
28605;SDS011;46498;49.968;7.754;2023-06-10T13:25:28;6.65;;;5.90;;
28605;SDS011;46498;49.968;7.754;2023-06-10T13:30:29;8.40;;;5.62;;
28605;SDS011;46498;49.968;7.754;2023-06-10T13:35:29;8.82;;;5.45;;
28605;SDS011;46498;49.968;7.754;2023-06-10T13:40:30;9.25;;;5.40;;
28605;SDS011;46498;49.968;7.754;2023-06-10T13:45:31;6.45;;;5.55;;
28605;SDS011;46498;49.968;7.754;2023-06-10T13:50:32;6.75;;;5.28;;
28605;SDS011;46498;49.968;7.754;2023-06-10T13:55:33;7.20;;;4.75;;
28605;SDS011;46498;49.968;7.754;2023-06-10T14:00:34;8.27;;;5.55;;
28605;SDS011;46498;49.968;7.754;2023-06-10T14:05:35;11.57;;;5.78;;
28605;SDS011;46498;49.968;7.754;2023-06-10T14:10:35;8.82;;;5.45;;
28605;SDS011;46498;49.968;7.754;2023-06-10T14:15:36;5.72;;;5.12;;
28605;SDS011;46498;49.968;7.754;2023-06-10T14:20:37;7.80;;;5.28;;
28605;SDS011;46498;49.968;7.754;2023-06-10T14:25:38;5.78;;;5.18;;
28605;SDS011;46498;49.968;7.754;2023-06-10T14:30:39;6.68;;;5.28;;
28605;SDS011;46498;49.968;7.754;2023-06-10T14:35:40;7.82;;;5.37;;
28605;SDS011;46498;49.968;7.754;2023-06-10T14:40:41;6.68;;;5.57;;
28605;SDS011;46498;49.968;7.754;2023-06-10T14:45:42;7.78;;;5.62;;
28605;SDS011;46498;49.968;7.754;2023-06-10T14:50:43;7.43;;;5.10;;
28605;SDS011;46498;49.968;7.754;2023-06-10T14:55:47;8.77;;;5.30;;
28605;SDS011;46498;49.968;7.754;2023-06-10T15:00:48;8.38;;;5.18;;
28605;SDS011;46498;49.968;7.754;2023-06-10T15:05:49;7.62;;;6.00;;
28605;SDS011;46498;49.968;7.754;2023-06-10T15:10:49;9.23;;;6.00;;
28605;SDS011;46498;49.968;7.754;2023-06-10T15:15:50;5.28;;;4.78;;
28605;SDS011;46498;49.968;7.754;2023-06-10T15:20:51;8.05;;;5.40;;
28605;SDS011;46498;49.968;7.754;2023-06-10T15:25:52;6.82;;;4.72;;
28605;SDS011;46498;49.968;7.754;2023-06-10T15:30:53;12.05;;;5.43;;
28605;SDS011;46498;49.968;7.754;2023-06-10T15:35:54;6.85;;;5.30;;
28605;SDS011;46498;49.968;7.754;2023-06-10T15:40:55;11.10;;;5.22;;
28605;SDS011;46498;49.968;7.754;2023-06-10T15:45:56;10.52;;;5.12;;
28605;SDS011;46498;49.968;7.754;2023-06-10T15:50:57;6.50;;;5.07;;
28605;SDS011;46498;49.968;7.754;2023-06-10T15:55:57;10.05;;;5.97;;
28605;SDS011;46498;49.968;7.754;2023-06-10T16:00:58;6.05;;;5.45;;
28605;SDS011;46498;49.968;7.754;2023-06-10T16:05:59;7.32;;;4.97;;
28605;SDS011;46498;49.968;7.754;2023-06-10T16:11:00;6.68;;;5.32;;
28605;SDS011;46498;49.968;7.754;2023-06-10T16:16:01;8.30;;;5.68;;
28605;SDS011;46498;49.968;7.754;2023-06-10T16:21:02;11.43;;;5.47;;
28605;SDS011;46498;49.968;7.754;2023-06-10T16:26:03;7.75;;;4.78;;
28605;SDS011;46498;49.968;7.754;2023-06-10T16:31:04;12.27;;;5.35;;
28605;SDS011;46498;49.968;7.754;2023-06-10T16:36:05;6.18;;;4.95;;
28605;SDS011;46498;49.968;7.754;2023-06-10T16:41:06;8.38;;;5.87;;
28605;SDS011;46498;49.968;7.754;2023-06-10T16:46:07;7.53;;;5.80;;
28605;SDS011;46498;49.968;7.754;2023-06-10T16:51:08;6.87;;;5.10;;
28605;SDS011;46498;49.968;7.754;2023-06-10T16:56:09;8.70;;;5.40;;
28605;SDS011;46498;49.968;7.754;2023-06-10T17:01:10;6.30;;;4.82;;
28605;SDS011;46498;49.968;7.754;2023-06-10T17:06:11;9.65;;;5.50;;
28605;SDS011;46498;49.968;7.754;2023-06-10T17:11:12;8.95;;;5.25;;
28605;SDS011;46498;49.968;7.754;2023-06-10T17:16:12;7.90;;;4.82;;
28605;SDS011;46498;49.968;7.754;2023-06-10T17:21:13;7.60;;;5.28;;
28605;SDS011;46498;49.968;7.754;2023-06-10T17:26:14;6.82;;;5.03;;
28605;SDS011;46498;49.968;7.754;2023-06-10T17:31:15;9.43;;;4.95;;
28605;SDS011;46498;49.968;7.754;2023-06-10T17:36:16;6.30;;;5.27;;
28605;SDS011;46498;49.968;7.754;2023-06-10T17:41:18;8.13;;;5.47;;
28605;SDS011;46498;49.968;7.754;2023-06-10T17:46:19;9.65;;;4.40;;
28605;SDS011;46498;49.968;7.754;2023-06-10T17:51:20;10.45;;;5.20;;
28605;SDS011;46498;49.968;7.754;2023-06-10T17:56:21;9.20;;;5.53;;
28605;SDS011;46498;49.968;7.754;2023-06-10T18:01:22;8.77;;;5.18;;
28605;SDS011;46498;49.968;7.754;2023-06-10T18:06:23;8.90;;;5.07;;
28605;SDS011;46498;49.968;7.754;2023-06-10T18:11:23;7.97;;;5.00;;
28605;SDS011;46498;49.968;7.754;2023-06-10T18:16:26;6.15;;;4.72;;
28605;SDS011;46498;49.968;7.754;2023-06-10T18:21:29;8.00;;;5.47;;
28605;SDS011;46498;49.968;7.754;2023-06-10T18:26:30;7.25;;;5.22;;
28605;SDS011;46498;49.968;7.754;2023-06-10T18:31:31;8.32;;;5.10;;
28605;SDS011;46498;49.968;7.754;2023-06-10T18:36:32;6.78;;;4.47;;
28605;SDS011;46498;49.968;7.754;2023-06-10T18:41:33;9.45;;;5.07;;
28605;SDS011;46498;49.968;7.754;2023-06-10T18:46:33;11.48;;;5.50;;
28605;SDS011;46498;49.968;7.754;2023-06-10T18:51:35;6.77;;;4.83;;
28605;SDS011;46498;49.968;7.754;2023-06-10T18:56:36;8.20;;;4.60;;
28605;SDS011;46498;49.968;7.754;2023-06-10T19:01:37;7.40;;;5.05;;
28605;SDS011;46498;49.968;7.754;2023-06-10T19:06:38;8.57;;;5.00;;
28605;SDS011;46498;49.968;7.754;2023-06-10T19:11:39;8.13;;;4.85;;
28605;SDS011;46498;49.968;7.754;2023-06-10T19:16:40;7.57;;;4.70;;
28605;SDS011;46498;49.968;7.754;2023-06-10T19:21:41;9.38;;;4.95;;
28605;SDS011;46498;49.968;7.754;2023-06-10T19:26:42;7.18;;;5.15;;
28605;SDS011;46498;49.968;7.754;2023-06-10T19:31:43;6.95;;;5.03;;
28605;SDS011;46498;49.968;7.754;2023-06-10T19:36:44;8.30;;;5.30;;
28605;SDS011;46498;49.968;7.754;2023-06-10T19:41:45;7.32;;;5.47;;
28605;SDS011;46498;49.968;7.754;2023-06-10T19:46:46;8.70;;;5.68;;
28605;SDS011;46498;49.968;7.754;2023-06-10T19:51:48;7.62;;;5.80;;
28605;SDS011;46498;49.968;7.754;2023-06-10T19:56:50;9.23;;;5.18;;
28605;SDS011;46498;49.968;7.754;2023-06-10T20:01:51;8.30;;;6.10;;
28605;SDS011;46498;49.968;7.754;2023-06-10T20:06:52;7.78;;;5.30;;
28605;SDS011;46498;49.968;7.754;2023-06-10T20:11:53;10.07;;;5.10;;
28605;SDS011;46498;49.968;7.754;2023-06-10T20:16:54;8.07;;;5.47;;
28605;SDS011;46498;49.968;7.754;2023-06-10T20:21:55;9.50;;;5.40;;
28605;SDS011;46498;49.968;7.754;2023-06-10T20:26:56;7.53;;;5.30;;
28605;SDS011;46498;49.968;7.754;2023-06-10T20:31:58;10.50;;;5.67;;
28605;SDS011;46498;49.968;7.754;2023-06-10T20:36:59;8.38;;;5.65;;
28605;SDS011;46498;49.968;7.754;2023-06-10T20:42:00;10.93;;;6.60;;
28605;SDS011;46498;49.968;7.754;2023-06-10T20:47:01;8.40;;;6.40;;
28605;SDS011;46498;49.968;7.754;2023-06-10T20:52:02;11.55;;;6.30;;
28605;SDS011;46498;49.968;7.754;2023-06-10T20:57:04;11.80;;;6.35;;
28605;SDS011;46498;49.968;7.754;2023-06-10T21:02:06;10.13;;;6.40;;
28605;SDS011;46498;49.968;7.754;2023-06-10T21:07:07;8.70;;;6.40;;
28605;SDS011;46498;49.968;7.754;2023-06-10T21:12:08;12.45;;;6.45;;
28605;SDS011;46498;49.968;7.754;2023-06-10T21:17:10;10.13;;;6.43;;
28605;SDS011;46498;49.968;7.754;2023-06-10T21:22:11;8.40;;;5.90;;
28605;SDS011;46498;49.968;7.754;2023-06-10T21:27:12;10.25;;;6.55;;
28605;SDS011;46498;49.968;7.754;2023-06-10T21:32:14;7.12;;;5.95;;
28605;SDS011;46498;49.968;7.754;2023-06-10T21:37:16;9.75;;;6.43;;
28605;SDS011;46498;49.968;7.754;2023-06-10T21:42:16;10.00;;;6.32;;
28605;SDS011;46498;49.968;7.754;2023-06-10T21:47:17;8.20;;;5.80;;
28605;SDS011;46498;49.968;7.754;2023-06-10T21:52:18;12.68;;;7.00;;
28605;SDS011;46498;49.968;7.754;2023-06-10T21:57:21;8.70;;;6.22;;
28605;SDS011;46498;49.968;7.754;2023-06-10T22:02:22;8.60;;;6.43;;
28605;SDS011;46498;49.968;7.754;2023-06-10T22:07:25;9.50;;;6.75;;
28605;SDS011;46498;49.968;7.754;2023-06-10T22:12:26;10.32;;;7.25;;
28605;SDS011;46498;49.968;7.754;2023-06-10T22:17:27;9.10;;;6.82;;
28605;SDS011;46498;49.968;7.754;2023-06-10T22:22:31;10.77;;;6.95;;
28605;SDS011;46498;49.968;7.754;2023-06-10T22:27:32;8.75;;;7.32;;
28605;SDS011;46498;49.968;7.754;2023-06-10T22:32:33;9.15;;;7.15;;
28605;SDS011;46498;49.968;7.754;2023-06-10T22:37:34;8.07;;;6.37;;
28605;SDS011;46498;49.968;7.754;2023-06-10T22:42:35;10.73;;;7.05;;
28605;SDS011;46498;49.968;7.754;2023-06-10T22:47:36;8.80;;;6.68;;
28605;SDS011;46498;49.968;7.754;2023-06-10T22:52:37;11.10;;;6.68;;
28605;SDS011;46498;49.968;7.754;2023-06-10T22:57:38;11.10;;;6.87;;
28605;SDS011;46498;49.968;7.754;2023-06-10T23:02:39;8.95;;;7.00;;
28605;SDS011;46498;49.968;7.754;2023-06-10T23:07:40;11.55;;;6.97;;
28605;SDS011;46498;49.968;7.754;2023-06-10T23:12:41;8.15;;;6.87;;
28605;SDS011;46498;49.968;7.754;2023-06-10T23:17:42;10.13;;;7.32;;
28605;SDS011;46498;49.968;7.754;2023-06-10T23:22:45;8.50;;;6.45;;
28605;SDS011;46498;49.968;7.754;2023-06-10T23:27:50;10.63;;;7.53;;
28605;SDS011;46498;49.968;7.754;2023-06-10T23:32:51;9.05;;;7.07;;
28605;SDS011;46498;49.968;7.754;2023-06-10T23:37:52;8.88;;;7.25;;
28605;SDS011;46498;49.968;7.754;2023-06-10T23:42:53;9.50;;;6.65;;
28605;SDS011;46498;49.968;7.754;2023-06-10T23:47:54;8.02;;;6.30;;
28605;SDS011;46498;49.968;7.754;2023-06-10T23:52:55;7.90;;;6.80;;
28605;SDS011;46498;49.968;7.754;2023-06-10T23:57:56;9.40;;;7.20;;
